PortugalFixed distance
Ultra Trail do Marão UTM 60k
1–2 Apr2023
Distance
60km
Finishers
11394 men19 women
Winning time
6:41:29h
Median pace
5.42km/h
Pace distribution
113 finishers · 4.09–8.97 km/h · mean 5.65
Every finisher ran the same 60 km course, so these paces are directly comparable.
Histogram of finisher pace. 113 finishers ranged from 4.09 to 8.97 kilometres per hour, with a mean of 5.65 and a median of 5.42. The busiest band is 5.0 to 5.5 kilometres per hour, with 32 finishers.
Results
Ranks 101–113 of 113
| Rank | Runner | Time | Pace | Cat. | Placing |
|---|---|---|---|---|---|
| 101 | 12:57:15h | 4.63 | M23 | 87th M · 10th M23 | |
| 102 | 12:57:17h | 4.63 | W23 | 15th F · 4th W23 | |
| 103 | WR - Werun | 13:08:40h | 4.57 | M40 | 88th M · 23rd M40 |
| 104 | OS Tolinhos | 13:16:54h | 4.52 | M40 | 89th M · 24th M40 |
| 105 | Clube de Atletismo de ... | 13:24:18h | 4.48 | M60 | 90th M · 2nd M60 |
| 106 | Strendure Running Team | 13:25:20h | 4.47 | W45 | 16th F · 2nd W45 |
| 107 | Não fazemos nem mais u... | 13:42:47h | 4.38 | W60 | 17th F · 1st W60 |
| 108 | Mato Cheirinhos | 14:06:17h | 4.25 | W45 | 18th F · 3rd W45 |
| 109 | 14:06:18h | 4.25 | W40 | 19th F · 6th W40 | |
| 110 | Gumpsrus | 14:09:23h | 4.24 | M55 | 91st M · 7th M55 |
| 111 | Puxa POR TI | 14:18:00h | 4.20 | M45 | 92nd M · 25th M45 |
| 112 | NÃO Fazemos NEM Mais U... | 14:39:02h | 4.09 | M50 | 93rd M · 11th M50 |
| 113 | 14:40:10h | 4.09 | M40 | 94th M · 25th M40 |
- 10187th M · 10th M23Time12:57:15hPace4.63Cat.M23
- 10215th F · 4th W23Time12:57:17hPace4.63Cat.W23
- 103WR - Werun88th M · 23rd M40Time13:08:40hPace4.57Cat.M40
- 104OS Tolinhos89th M · 24th M40Time13:16:54hPace4.52Cat.M40
- 105Clube de Atletismo de ...90th M · 2nd M60Time13:24:18hPace4.48Cat.M60
- 106Strendure Running Team16th F · 2nd W45Time13:25:20hPace4.47Cat.W45
- 107Não fazemos nem mais u...17th F · 1st W60Time13:42:47hPace4.38Cat.W60
- 108Mato Cheirinhos18th F · 3rd W45Time14:06:17hPace4.25Cat.W45
- 10919th F · 6th W40Time14:06:18hPace4.25Cat.W40
- 110Gumpsrus91st M · 7th M55Time14:09:23hPace4.24Cat.M55
- 111Puxa POR TI92nd M · 25th M45Time14:18:00hPace4.20Cat.M45
- 112NÃO Fazemos NEM Mais U...93rd M · 11th M50Time14:39:02hPace4.09Cat.M50
- 11394th M · 25th M40Time14:40:10hPace4.09Cat.M40
Showing ranks 101–113 of 113